Time;durP1;ratioP1;P1;durP2;ratioP2;P2;SDS_P1;SDS_P2;PMS_P1;PMS_P2;Temp;Humidity;BMP_temperature;BMP_pressure;BME280_temperature;BME280_humidity;BME280_pressure;Samples;Min_cycle;Max_cycle;Signal;HPM_P1;HPM_P2
2022/11/29 00:01:45;;;;;;;3.00;2.80;;;19.30;42.30;;;;;;4975907;28;20541;-62
2022/11/29 00:04:10;;;;;;;2.97;2.77;;;19.30;42.30;;;;;;4973832;28;20436;-63
2022/11/29 00:06:36;;;;;;;3.17;2.97;;;19.30;42.30;;;;;;4979139;28;20231;-64
2022/11/29 00:09:06;;;;;;;2.80;2.60;;;19.30;42.30;;;;;;4982412;28;20232;-65
2022/11/29 00:14:21;;;;;;;2.70;2.50;;;19.30;42.30;;;;;;4983612;28;20509;-63
2022/11/29 00:16:57;;;;;;;2.33;2.23;;;19.30;42.30;;;;;;4988238;28;20796;-63
2022/11/29 00:19:23;;;;;;;2.80;2.60;;;19.30;42.30;;;;;;4976356;28;20608;-63
2022/11/29 00:21:49;;;;;;;3.17;2.97;;;19.30;42.30;;;;;;4989293;28;20449;-62
2022/11/29 00:24:15;;;;;;;2.53;2.33;;;19.30;42.30;;;;;;4990103;28;20219;-62
2022/11/29 00:26:40;;;;;;;2.20;2.10;;;19.30;42.30;;;;;;4972112;28;20262;-62
2022/11/29 00:29:06;;;;;;;3.00;2.80;;;19.30;42.30;;;;;;4974860;28;20209;-62
2022/11/29 00:31:33;;;;;;;2.90;2.70;;;19.30;42.30;;;;;;4994031;28;20741;-63
2022/11/29 00:34:00;;;;;;;3.90;2.70;;;19.30;42.30;;;;;;4976343;28;20275;-62
2022/11/29 00:36:26;;;;;;;3.53;3.33;;;19.30;42.30;;;;;;4979627;28;20440;-63
2022/11/29 00:38:52;;;;;;;3.10;2.80;;;19.30;42.50;;;;;;4980529;28;20818;-63
2022/11/29 00:41:18;;;;;;;3.20;3.00;;;19.30;42.40;;;;;;4985298;28;20657;-63
2022/11/29 00:43:43;;;;;;;3.40;3.20;;;19.30;42.50;;;;;;4989075;28;20215;-63
2022/11/29 00:46:09;;;;;;;2.90;2.70;;;19.30;42.30;;;;;;4995312;28;20460;-63
2022/11/29 00:48:36;;;;;;;2.60;2.50;;;19.30;42.30;;;;;;4995563;28;20219;-62
2022/11/29 00:51:02;;;;;;;3.30;3.10;;;19.30;42.30;;;;;;4987434;28;20230;-63
2022/11/29 00:53:28;;;;;;;3.60;3.40;;;19.30;42.30;;;;;;4975300;28;20444;-62
2022/11/29 00:55:54;;;;;;;3.00;2.80;;;19.30;42.30;;;;;;4976735;28;20501;-63
2022/11/29 00:58:21;;;;;;;2.47;2.27;;;19.30;42.30;;;;;;4992090;28;20236;-63
2022/11/29 01:00:47;;;;;;;2.60;2.43;;;19.30;42.50;;;;;;4990383;28;20254;-64
2022/11/29 01:03:13;;;;;;;2.87;2.67;;;19.30;42.30;;;;;;4987142;28;20467;-64
2022/11/29 01:05:40;;;;;;;2.90;2.70;;;19.30;42.30;;;;;;4978997;28;22634;-62
2022/11/29 01:08:05;;;;;;;2.87;2.77;;;19.30;42.30;;;;;;4974897;28;20485;-63
2022/11/29 01:10:31;;;;;;;3.33;3.13;;;19.30;42.30;;;;;;4973653;28;20470;-63
2022/11/29 01:12:56;;;;;;;2.80;2.70;;;19.30;42.40;;;;;;4982244;28;20240;-64
2022/11/29 01:15:22;;;;;;;3.07;2.87;;;19.30;42.40;;;;;;4978063;28;20340;-64
2022/11/29 01:17:48;;;;;;;2.63;2.43;;;19.30;42.30;;;;;;4983212;28;20327;-63
2022/11/29 01:20:14;;;;;;;2.43;2.30;;;19.30;42.50;;;;;;4984067;28;20246;-62
2022/11/29 01:22:41;;;;;;;2.40;2.30;;;19.30;42.30;;;;;;4979087;28;20228;-63
2022/11/29 01:25:08;;;;;;;2.87;2.67;;;19.30;42.40;;;;;;4979563;28;20440;-63
2022/11/29 01:27:33;;;;;;;2.53;2.33;;;19.30;42.30;;;;;;4983644;28;20468;-62
2022/11/29 01:29:59;;;;;;;2.53;2.33;;;19.30;42.40;;;;;;4973347;28;20436;-63
2022/11/29 01:32:25;;;;;;;2.90;2.70;;;19.30;42.30;;;;;;4977144;28;20231;-62
2022/11/29 01:34:50;;;;;;;2.87;2.67;;;19.30;42.40;;;;;;4985646;28;20265;-63
2022/11/29 01:37:16;;;;;;;3.20;3.00;;;19.30;42.50;;;;;;4996439;28;20449;-63
2022/11/29 01:39:42;;;;;;;2.43;2.33;;;19.30;42.40;;;;;;4989404;28;20208;-62
2022/11/29 01:42:12;;;;;;;3.07;2.33;;;19.30;42.40;;;;;;4977104;28;20216;-63
2022/11/29 01:44:38;;;;;;;2.27;2.17;;;19.30;42.40;;;;;;4994807;28;20766;-63
2022/11/29 01:47:04;;;;;;;2.70;2.60;;;19.20;42.30;;;;;;4986270;28;20470;-64
2022/11/29 01:49:37;;;;;;;2.60;2.50;;;19.20;42.20;;;;;;4986585;28;20223;-62
2022/11/29 01:52:34;;;;;;;2.57;2.37;;;19.30;42.30;;;;;;4973724;28;20464;-63
2022/11/29 01:55:03;;;;;;;2.40;2.30;;;19.20;42.30;;;;;;4967882;28;20457;-62
2022/11/29 01:57:31;;;;;;;2.50;2.40;;;19.30;42.50;;;;;;4973400;28;20514;-64
2022/11/29 02:00:07;;;;;;;2.30;2.20;;;19.20;42.30;;;;;;4983157;28;20445;-63
2022/11/29 02:02:37;;;;;;;2.33;2.23;;;19.20;42.30;;;;;;4976360;28;20443;-63
2022/11/29 02:05:03;;;;;;;3.20;3.00;;;19.20;42.30;;;;;;4985454;28;20443;-63
2022/11/29 02:07:29;;;;;;;2.80;2.60;;;19.20;42.30;;;;;;4983405;28;21149;-64
2022/11/29 02:09:54;;;;;;;2.80;2.60;;;19.20;42.30;;;;;;4983610;28;20444;-64
2022/11/29 02:12:37;;;;;;;2.57;2.37;;;19.20;42.30;;;;;;4980953;28;20590;-63
2022/11/29 02:15:14;;;;;;;2.70;2.50;;;19.20;42.30;;;;;;4982707;28;20208;-63
2022/11/29 02:17:58;;;;;;;3.00;2.80;;;19.30;42.50;;;;;;4985127;28;21025;-63
2022/11/29 02:20:48;;;;;;;3.17;2.97;;;19.20;42.20;;;;;;4979628;28;20439;-63
2022/11/29 02:23:25;;;;;;;2.33;2.23;;;19.20;42.20;;;;;;4975603;28;20477;-63
2022/11/29 02:26:24;;;;;;;2.67;2.53;;;19.20;42.20;;;;;;4982993;28;20475;-63
2022/11/29 02:29:29;;;;;;;2.70;2.53;;;19.30;42.40;;;;;;4979372;28;20436;-63
2022/11/29 02:32:17;;;;;;;3.40;3.10;;;19.20;42.30;;;;;;4995649;28;20469;-63
2022/11/29 02:34:45;;;;;;;3.00;2.80;;;19.20;42.30;;;;;;4985187;28;20552;-64
2022/11/29 02:37:13;;;;;;;3.20;3.00;;;19.20;42.30;;;;;;4975040;28;21187;-63
2022/11/29 02:40:06;;;;;;;3.00;2.80;;;19.20;42.30;;;;;;4976766;28;20447;-63
2022/11/29 02:42:50;;;;;;;2.63;2.43;;;19.20;42.30;;;;;;4974905;28;21468;-62
2022/11/29 02:45:54;;;;;;;2.87;2.73;;;19.20;42.30;;;;;;4991479;28;20444;-64
2022/11/29 02:48:58;;;;;;;2.60;2.47;;;19.20;42.30;;;;;;4989287;28;20450;-62
2022/11/29 02:52:00;;;;;;;4.27;3.97;;;19.20;42.30;;;;;;4991115;28;20500;-63
2022/11/29 02:54:41;;;;;;;2.97;2.77;;;19.20;42.30;;;;;;4986123;28;20452;-63
2022/11/29 02:57:50;;;;;;;3.30;3.10;;;19.20;42.30;;;;;;4988457;28;20789;-63
2022/11/29 03:00:19;;;;;;;3.07;2.87;;;19.20;42.30;;;;;;4990760;28;24351;-62
2022/11/29 03:02:50;;;;;;;3.27;3.07;;;19.20;42.40;;;;;;4988526;28;20488;-63
2022/11/29 03:05:29;;;;;;;2.50;2.40;;;19.20;42.50;;;;;;4974683;28;20415;-62
2022/11/29 03:07:54;;;;;;;2.73;2.60;;;19.20;42.30;;;;;;4982453;28;20456;-62
2022/11/29 03:10:48;;;;;;;2.93;2.73;;;19.20;42.50;;;;;;4986419;28;20466;-62
2022/11/29 03:13:27;;;;;;;3.40;3.10;;;19.20;42.40;;;;;;4999636;28;20220;-62
2022/11/29 03:16:17;;;;;;;2.57;2.47;;;19.20;42.40;;;;;;4991874;28;20532;-64
2022/11/29 03:19:03;;;;;;;3.10;2.90;;;19.20;42.40;;;;;;4999356;28;20472;-62
2022/11/29 03:22:09;;;;;;;3.17;2.97;;;19.20;42.40;;;;;;4992281;28;20466;-63
2022/11/29 03:24:57;;;;;;;2.73;2.63;;;19.20;42.40;;;;;;4994755;28;20771;-61
2022/11/29 03:27:37;;;;;;;2.97;2.80;;;19.20;42.30;;;;;;4985307;28;20850;-62
2022/11/29 03:30:07;;;;;;;3.10;2.90;;;19.20;42.50;;;;;;4996886;28;20427;-62
2022/11/29 03:32:44;;;;;;;2.67;2.57;;;19.20;42.50;;;;;;4995427;28;20463;-62
2022/11/29 03:35:35;;;;;;;3.23;3.03;;;19.20;42.40;;;;;;4993655;28;20447;-62
2022/11/29 03:38:28;;;;;;;3.57;3.37;;;19.20;42.40;;;;;;4990558;28;20489;-61
2022/11/29 03:41:03;;;;;;;3.00;2.80;;;19.20;42.40;;;;;;4983316;28;20473;-64
2022/11/29 03:43:39;;;;;;;3.27;3.07;;;19.20;42.40;;;;;;4978703;28;20485;-62
2022/11/29 03:46:29;;;;;;;3.00;2.80;;;19.20;42.50;;;;;;4982568;28;20463;-61
2022/11/29 03:49:31;;;;;;;3.07;2.87;;;19.20;42.50;;;;;;4986974;28;20504;-62
2022/11/29 03:52:05;;;;;;;3.23;3.03;;;19.20;42.50;;;;;;4969682;28;20941;-64
2022/11/29 03:54:51;;;;;;;3.40;3.20;;;19.20;42.50;;;;;;4981808;28;20490;-62
2022/11/29 03:57:22;;;;;;;3.30;3.10;;;19.20;42.50;;;;;;4977386;28;20484;-62
2022/11/29 03:59:55;;;;;;;3.10;2.80;;;19.20;42.50;;;;;;4977384;28;20416;-63
2022/11/29 04:03:05;;;;;;;3.17;2.87;;;19.20;42.50;;;;;;4981792;28;20444;-63
2022/11/29 04:05:39;;;;;;;3.10;2.90;;;19.20;42.40;;;;;;4974927;28;20946;-62
2022/11/29 04:08:19;;;;;;;2.67;2.47;;;19.20;42.50;;;;;;4977909;28;21509;-62
2022/11/29 04:11:04;;;;;;;2.83;2.63;;;19.20;42.50;;;;;;4977909;28;20487;-62
2022/11/29 04:13:51;;;;;;;3.47;3.27;;;19.20;42.50;;;;;;4972541;28;20560;-64
2022/11/29 04:16:47;;;;;;;3.53;3.33;;;19.20;42.50;;;;;;4989224;28;20436;-63
2022/11/29 04:19:28;;;;;;;2.70;2.50;;;19.20;42.50;;;;;;4977848;28;20986;-62
2022/11/29 04:22:20;;;;;;;3.50;3.30;;;19.20;42.60;;;;;;4983763;28;20531;-64
2022/11/29 04:25:11;;;;;;;3.03;2.83;;;19.20;42.50;;;;;;4978246;28;20440;-63
2022/11/29 04:27:52;;;;;;;4.10;3.80;;;19.20;42.50;;;;;;4994049;28;20924;-62
2022/11/29 04:30:26;;;;;;;3.50;3.20;;;19.20;42.50;;;;;;4990542;28;20458;-62
2022/11/29 04:33:29;;;;;;;3.50;3.30;;;19.20;42.20;;;;;;4994516;28;20474;-62
2022/11/29 04:36:13;;;;;;;3.10;2.90;;;19.20;42.50;;;;;;4983273;28;20508;-62
2022/11/29 04:39:00;;;;;;;3.30;3.10;;;19.20;42.60;;;;;;4984506;28;20823;-63
2022/11/29 04:41:58;;;;;;;3.10;2.90;;;19.20;42.50;;;;;;4996447;28;20489;-63
2022/11/29 04:44:36;;;;;;;3.30;3.10;;;19.20;42.50;;;;;;4985952;28;20448;-62
2022/11/29 04:47:31;;;;;;;4.77;3.23;;;19.20;42.60;;;;;;4985915;28;21087;-61
2022/11/29 04:50:15;;;;;;;3.50;3.30;;;19.20;42.60;;;;;;4987796;28;20444;-62
2022/11/29 04:53:07;;;;;;;3.10;2.90;;;19.20;42.60;;;;;;4977810;28;20423;-61
2022/11/29 04:56:10;;;;;;;3.23;3.03;;;19.20;42.60;;;;;;4978043;28;20462;-62
2022/11/29 04:59:01;;;;;;;3.50;3.20;;;19.20;42.60;;;;;;4974593;28;20467;-62
2022/11/29 05:01:57;;;;;;;3.40;3.10;;;19.20;42.50;;;;;;4970886;28;20531;-64
2022/11/29 05:04:29;;;;;;;3.07;2.87;;;19.20;42.50;;;;;;4977582;28;20428;-62
2022/11/29 05:07:17;;;;;;;3.53;3.33;;;19.20;42.50;;;;;;4992835;28;20983;-62
2022/11/29 05:10:24;;;;;;;3.67;3.47;;;19.20;42.40;;;;;;4996214;28;20459;-63
2022/11/29 05:13:11;;;;;;;3.20;3.00;;;19.20;42.50;;;;;;4979132;28;20985;-63
2022/11/29 05:15:51;;;;;;;3.50;3.30;;;19.30;42.50;;;;;;4978620;28;20461;-62
2022/11/29 05:18:34;;;;;;;3.57;3.37;;;19.30;42.50;;;;;;4974819;28;20477;-63
2022/11/29 05:21:41;;;;;;;4.30;4.00;;;19.30;42.50;;;;;;4996563;28;20534;-62
2022/11/29 05:24:23;;;;;;;3.43;3.13;;;19.30;42.40;;;;;;4964792;28;20436;-63
2022/11/29 05:27:21;;;;;;;3.47;3.27;;;19.30;42.30;;;;;;4981862;28;20464;-60
2022/11/29 05:30:02;;;;;;;4.00;3.70;;;19.30;42.30;;;;;;4991513;28;21050;-62
2022/11/29 05:32:35;;;;;;;3.50;3.30;;;19.30;42.20;;;;;;4988868;28;20966;-62
2022/11/29 05:35:22;;;;;;;3.20;2.90;;;19.30;42.20;;;;;;4978604;28;20870;-63
2022/11/29 05:37:52;;;;;;;3.77;3.50;;;19.30;42.10;;;;;;4980691;28;20451;-63
2022/11/29 05:40:35;;;;;;;3.37;3.17;;;19.40;42.20;;;;;;4993565;28;20526;-63
2022/11/29 05:43:28;;;;;;;3.30;2.80;;;19.40;42.10;;;;;;4981105;28;20519;-63
2022/11/29 05:46:02;;;;;;;4.10;3.70;;;19.40;42.10;;;;;;4979835;28;20989;-63
2022/11/29 05:48:56;;;;;;;3.53;3.33;;;19.40;42.10;;;;;;4989832;28;20436;-64
2022/11/29 05:51:38;;;;;;;4.00;3.57;;;19.40;42.10;;;;;;4980561;28;20462;-63
2022/11/29 05:54:29;;;;;;;5.53;3.70;;;19.40;42.10;;;;;;4988298;28;21269;-63
2022/11/29 05:57:03;;;;;;;3.93;3.63;;;19.40;42.00;;;;;;4994323;28;20439;-63
2022/11/29 05:59:29;;;;;;;3.47;3.27;;;19.40;42.80;;;;;;4975263;28;21047;-63
2022/11/29 06:02:05;;;;;;;4.87;3.10;;;19.40;42.10;;;;;;4979528;28;20520;-65
2022/11/29 06:04:59;;;;;;;4.53;3.27;;;19.40;42.10;;;;;;4978156;28;20447;-65
2022/11/29 06:07:48;;;;;;;4.10;3.80;;;19.40;42.00;;;;;;4975593;28;20458;-63
2022/11/29 06:10:19;;;;;;;3.53;3.23;;;19.40;42.10;;;;;;4986869;28;20469;-64
2022/11/29 06:12:56;;;;;;;3.90;3.60;;;19.40;42.00;;;;;;4972619;28;20889;-64
2022/11/29 06:15:49;;;;;;;3.33;3.13;;;19.40;42.10;;;;;;4982470;28;20528;-63
2022/11/29 06:18:35;;;;;;;4.00;3.70;;;19.40;42.00;;;;;;4990793;28;21601;-61
2022/11/29 06:21:27;;;;;;;3.33;3.13;;;19.40;42.00;;;;;;4978148;28;20443;-66
2022/11/29 06:24:31;;;;;;;3.50;3.20;;;19.40;42.00;;;;;;4977164;28;20464;-64
2022/11/29 06:27:04;;;;;;;3.60;3.30;;;19.40;42.00;;;;;;4982656;28;20442;-64
2022/11/29 06:29:51;;;;;;;3.37;3.17;;;19.40;42.10;;;;;;4970317;28;20448;-63
2022/11/29 06:32:33;;;;;;;3.97;3.57;;;19.40;42.10;;;;;;4967037;28;20440;-60
2022/11/29 06:35:10;;;;;;;3.37;3.17;;;19.40;42.00;;;;;;4985538;28;20543;-61
2022/11/29 06:37:47;;;;;;;3.63;3.33;;;19.40;42.10;;;;;;4980540;28;20750;-61
2022/11/29 06:40:15;;;;;;;3.90;3.60;;;19.40;42.10;;;;;;4989254;28;20419;-62
2022/11/29 06:42:40;;;;;;;2.90;2.70;;;19.40;42.10;;;;;;4989351;28;20452;-62
2022/11/29 06:45:09;;;;;;;3.80;3.50;;;19.40;42.10;;;;;;4995416;28;20798;-60
2022/11/29 06:47:43;;;;;;;3.20;2.97;;;19.40;42.10;;;;;;4992931;28;20231;-61
2022/11/29 06:50:12;;;;;;;3.70;3.40;;;19.40;42.10;;;;;;4979841;28;21378;-62
2022/11/29 06:52:49;;;;;;;4.07;3.77;;;19.40;42.10;;;;;;4974056;28;20454;-61
2022/11/29 06:55:31;;;;;;;3.43;3.23;;;19.40;42.20;;;;;;4977212;28;20423;-61
2022/11/29 06:58:05;;;;;;;3.50;3.20;;;19.40;42.10;;;;;;4967287;28;20508;-63
2022/11/29 07:00:56;;;;;;;3.80;3.50;;;19.40;42.10;;;;;;4962021;28;20432;-62
2022/11/29 07:03:57;;;;;;;3.47;3.23;;;19.40;42.10;;;;;;4975598;28;20437;-61
2022/11/29 07:06:26;;;;;;;3.60;3.40;;;19.40;42.10;;;;;;4982785;28;20595;-61
2022/11/29 07:08:58;;;;;;;5.47;3.90;;;19.40;42.20;;;;;;4989857;28;20463;-61
2022/11/29 07:11:24;;;;;;;3.77;3.30;;;19.40;42.20;;;;;;4975460;28;20429;-63
2022/11/29 07:13:50;;;;;;;3.67;3.40;;;19.40;42.20;;;;;;4972817;28;20897;-62
2022/11/29 07:16:30;;;;;;;3.57;3.27;;;19.40;42.20;;;;;;4980831;28;20439;-63
2022/11/29 07:19:26;;;;;;;4.20;3.90;;;19.40;42.20;;;;;;4970415;28;20444;-61
2022/11/29 07:22:00;;;;;;;4.10;3.00;;;19.40;42.10;;;;;;4977161;28;21023;-62
2022/11/29 07:25:02;;;;;;;4.60;4.20;;;19.40;42.20;;;;;;4977322;28;20428;-63
2022/11/29 07:27:51;;;;;;;3.60;3.30;;;19.40;42.20;;;;;;4973576;28;20464;-62
2022/11/29 07:30:33;;;;;;;4.00;3.70;;;19.40;42.20;;;;;;4973437;28;20475;-61
2022/11/29 07:33:12;;;;;;;4.23;3.83;;;19.40;42.30;;;;;;4974925;28;20547;-61
2022/11/29 07:36:07;;;;;;;4.20;3.90;;;19.40;42.20;;;;;;4989802;28;20535;-61
2022/11/29 07:38:50;;;;;;;4.57;3.77;;;19.40;42.30;;;;;;4972318;28;20477;-61
2022/11/29 07:41:48;;;;;;;3.70;3.23;;;19.40;42.30;;;;;;4975198;28;20457;-62
2022/11/29 07:44:26;;;;;;;4.57;4.17;;;19.40;42.20;;;;;;4987136;28;20508;-62
2022/11/29 07:46:51;;;;;;;4.27;3.87;;;19.40;42.30;;;;;;4970827;28;20475;-61
2022/11/29 07:49:17;;;;;;;4.40;4.10;;;19.40;42.30;;;;;;4974127;28;20509;-61
2022/11/29 07:51:43;;;;;;;3.90;3.50;;;19.40;42.30;;;;;;4975934;28;20277;-62
2022/11/29 07:54:12;;;;;;;3.63;3.33;;;19.40;42.30;;;;;;4973994;28;20230;-61
2022/11/29 07:56:37;;;;;;;4.10;3.80;;;19.40;42.30;;;;;;4969749;28;20240;-62
2022/11/29 07:59:03;;;;;;;4.97;4.50;;;19.40;42.30;;;;;;4976686;28;20487;-63
2022/11/29 08:01:30;;;;;;;3.60;3.30;;;19.40;42.30;;;;;;4958794;28;20223;-62
2022/11/29 08:03:55;;;;;;;4.53;3.87;;;19.40;42.30;;;;;;4976589;28;20277;-62
2022/11/29 08:06:25;;;;;;;5.63;4.20;;;19.40;42.30;;;;;;4976394;28;20428;-62
2022/11/29 08:08:50;;;;;;;5.70;3.73;;;19.40;42.30;;;;;;4973367;28;20327;-62
2022/11/29 08:11:16;;;;;;;4.10;3.80;;;19.40;42.30;;;;;;4974818;28;20532;-62
2022/11/29 08:13:41;;;;;;;4.13;3.83;;;19.40;42.30;;;;;;4970162;28;20227;-64
2022/11/29 08:16:07;;;;;;;3.87;3.57;;;19.40;42.30;;;;;;4978849;28;20216;-61
2022/11/29 08:18:34;;;;;;;3.93;3.50;;;19.40;42.30;;;;;;4981304;28;20334;-62
2022/11/29 08:21:05;;;;;;;3.40;3.20;;;19.40;42.30;;;;;;4985987;28;22250;-62
2022/11/29 08:23:30;;;;;;;4.23;3.93;;;19.40;42.30;;;;;;4991531;28;20909;-62
2022/11/29 08:26:02;;;;;;;3.90;3.60;;;19.40;42.40;;;;;;4988133;28;20981;-63
2022/11/29 08:28:28;;;;;;;4.63;4.03;;;19.40;42.40;;;;;;4987939;28;20753;-62
2022/11/29 08:31:01;;;;;;;4.03;3.77;;;19.40;42.40;;;;;;4970430;28;20421;-62
2022/11/29 08:33:27;;;;;;;4.73;4.10;;;19.40;42.40;;;;;;4965874;28;20243;-62
2022/11/29 08:35:52;;;;;;;4.30;3.90;;;19.40;43.20;;;;;;4961914;28;20771;-62
2022/11/29 08:38:18;;;;;;;3.90;3.70;;;19.40;42.40;;;;;;4969137;28;20232;-61
2022/11/29 08:40:43;;;;;;;4.83;3.93;;;19.40;42.40;;;;;;4972533;28;20215;-61
2022/11/29 08:43:09;;;;;;;4.90;4.43;;;19.40;42.50;;;;;;4973833;28;20224;-63
2022/11/29 08:45:34;;;;;;;4.30;3.90;;;19.40;42.40;;;;;;4972744;28;20280;-61
2022/11/29 08:48:00;;;;;;;4.47;3.80;;;19.40;42.40;;;;;;4982635;28;20865;-61
2022/11/29 08:50:25;;;;;;;4.67;3.67;;;19.40;42.40;;;;;;4983833;28;20215;-62
2022/11/29 08:55:41;;;;;;;4.03;3.80;;;19.40;42.40;;;;;;4983573;28;20293;-62
2022/11/29 08:58:09;;;;;;;4.87;4.10;;;19.40;42.40;;;;;;4989687;28;20542;-62
2022/11/29 09:00:36;;;;;;;4.40;4.10;;;19.40;42.50;;;;;;4990706;28;20532;-62
2022/11/29 09:05:48;;;;;;;3.97;3.67;;;19.40;42.50;;;;;;4971907;28;20460;-61
2022/11/29 09:08:14;;;;;;;3.47;3.20;;;19.40;42.50;;;;;;4967569;28;20441;-62
2022/11/29 09:10:40;;;;;;;4.13;3.73;;;19.40;42.50;;;;;;4975019;28;20346;-63
2022/11/29 09:13:08;;;;;;;4.40;4.03;;;19.40;42.40;;;;;;4983298;28;21068;-61
2022/11/29 09:15:33;;;;;;;3.97;3.67;;;19.40;42.50;;;;;;4968438;28;20481;-62
2022/11/29 09:17:59;;;;;;;4.00;3.70;;;19.40;42.50;;;;;;4964265;28;20444;-61
2022/11/29 09:20:24;;;;;;;4.63;4.33;;;19.40;42.50;;;;;;4968502;28;20240;-62
2022/11/29 09:22:50;;;;;;;3.97;3.77;;;19.40;42.50;;;;;;4969668;28;20281;-61
2022/11/29 09:25:16;;;;;;;4.30;3.90;;;19.40;42.50;;;;;;4967692;28;20384;-63
2022/11/29 09:27:41;;;;;;;3.10;2.90;;;19.40;42.50;;;;;;4972085;28;20310;-62
2022/11/29 09:30:07;;;;;;;3.73;3.43;;;19.40;42.60;;;;;;4972694;28;20212;-61
2022/11/29 09:32:34;;;;;;;3.80;3.50;;;19.40;42.50;;;;;;4992740;28;20620;-62
2022/11/29 09:35:00;;;;;;;4.10;3.80;;;19.40;42.50;;;;;;4989165;28;20525;-61
2022/11/29 09:37:25;;;;;;;3.73;3.50;;;19.40;42.60;;;;;;4994768;28;20449;-62
2022/11/29 09:39:51;;;;;;;3.43;3.23;;;19.40;42.50;;;;;;4987900;28;20309;-61
2022/11/29 09:43:03;;;;;;;3.87;3.33;;;19.40;42.60;;;;;;4984950;28;20362;-61
2022/11/29 09:45:35;;;;;;;3.90;3.60;;;19.40;42.60;;;;;;4958441;28;20987;-61
2022/11/29 09:48:09;;;;;;;3.90;3.60;;;19.40;42.60;;;;;;4988772;28;20456;-62
2022/11/29 09:50:42;;;;;;;3.93;3.63;;;19.40;42.60;;;;;;4969404;28;20480;-61
2022/11/29 09:53:13;;;;;;;4.40;4.10;;;19.40;42.60;;;;;;4973481;28;20452;-61
2022/11/29 09:56:00;;;;;;;4.20;4.00;;;19.40;42.60;;;;;;4970674;28;20530;-61
2022/11/29 09:58:35;;;;;;;3.47;3.27;;;19.40;42.60;;;;;;4989571;28;20463;-61
2022/11/29 10:01:07;;;;;;;5.13;4.60;;;19.40;42.60;;;;;;4974963;28;21175;-62
2022/11/29 10:03:43;;;;;;;4.50;4.10;;;19.40;42.60;;;;;;4971641;28;20429;-61
2022/11/29 10:06:24;;;;;;;5.30;4.90;;;19.40;42.60;;;;;;4977960;28;20567;-62
2022/11/29 10:09:02;;;;;;;4.63;4.00;;;19.30;42.50;;;;;;4973051;28;20435;-61
2022/11/29 10:11:34;;;;;;;5.83;4.27;;;19.40;42.60;;;;;;4974681;28;20443;-61
2022/11/29 10:14:23;;;;;;;3.53;3.23;;;19.40;42.60;;;;;;4969567;28;20645;-62
2022/11/29 10:16:55;;;;;;;4.53;4.23;;;19.40;42.60;;;;;;4983706;28;20492;-61
2022/11/29 10:19:32;;;;;;;4.77;4.37;;;19.30;42.60;;;;;;4985249;28;20547;-61
2022/11/29 10:22:21;;;;;;;4.10;3.80;;;19.40;42.60;;;;;;4972930;28;20526;-61
2022/11/29 10:24:50;;;;;;;4.10;3.80;;;19.30;42.50;;;;;;4973645;28;20436;-61
2022/11/29 10:27:23;;;;;;;4.00;3.70;;;19.30;42.60;;;;;;4978036;28;20453;-62
2022/11/29 10:29:50;;;;;;;4.10;3.80;;;19.30;42.60;;;;;;4962203;28;20444;-61
2022/11/29 10:32:20;;;;;;;4.17;3.77;;;19.30;42.70;;;;;;4965325;28;21022;-63
2022/11/29 10:34:47;;;;;;;3.87;3.67;;;19.30;42.60;;;;;;4962358;28;20964;-62
2022/11/29 10:37:16;;;;;;;3.73;3.43;;;19.30;42.60;;;;;;4983904;28;20447;-61
2022/11/29 10:39:47;;;;;;;3.87;3.67;;;19.40;42.60;;;;;;4985992;28;20447;-62
2022/11/29 10:45:29;;;;;;;4.53;4.23;;;19.40;43.00;;;;;;4964647;28;20473;-62
2022/11/29 10:48:02;;;;;;;4.00;3.73;;;19.30;42.60;;;;;;4970180;28;20950;-61
2022/11/29 10:50:30;;;;;;;4.93;4.43;;;19.30;42.60;;;;;;4972627;28;20929;-63
2022/11/29 10:53:17;;;;;;;4.13;3.77;;;19.40;43.40;;;;;;4972692;28;20423;-61
2022/11/29 10:55:52;;;;;;;4.33;4.00;;;19.30;42.60;;;;;;4973835;28;20478;-61
2022/11/29 10:58:24;;;;;;;4.27;3.97;;;19.30;42.60;;;;;;4970210;28;20923;-62
2022/11/29 11:01:06;;;;;;;3.70;3.40;;;19.30;42.60;;;;;;4974300;28;20512;-62
2022/11/29 11:03:40;;;;;;;4.40;4.10;;;19.30;42.60;;;;;;4983685;28;20821;-62
2022/11/29 11:06:05;;;;;;;4.50;4.10;;;19.30;42.60;;;;;;4973332;28;20862;-61
2022/11/29 11:08:32;;;;;;;3.60;3.30;;;19.30;42.60;;;;;;4961533;28;20572;-61
2022/11/29 11:10:59;;;;;;;3.60;3.33;;;19.30;42.60;;;;;;4975897;28;20310;-61
2022/11/29 11:13:28;;;;;;;4.40;4.00;;;19.30;42.60;;;;;;4972640;28;20933;-61
2022/11/29 11:16:16;;;;;;;3.90;3.50;;;19.30;42.60;;;;;;4976488;28;20525;-61
2022/11/29 11:18:43;;;;;;;4.10;3.80;;;19.30;42.60;;;;;;4987809;28;20462;-63
2022/11/29 11:21:11;;;;;;;4.13;3.80;;;19.30;42.60;;;;;;4989720;28;20445;-63
2022/11/29 11:23:52;;;;;;;4.13;3.83;;;19.30;42.70;;;;;;4980155;28;20781;-61
2022/11/29 11:26:18;;;;;;;4.10;3.80;;;19.30;42.60;;;;;;4982812;28;20420;-62
2022/11/29 11:28:58;;;;;;;4.33;4.00;;;19.30;42.60;;;;;;4981549;28;20492;-61
2022/11/29 11:31:33;;;;;;;4.30;3.90;;;19.30;42.70;;;;;;4971602;28;20483;-63
2022/11/29 11:34:30;;;;;;;4.20;3.90;;;19.30;42.60;;;;;;4970708;28;21223;-62
2022/11/29 11:37:19;;;;;;;4.03;3.63;;;19.30;42.60;;;;;;4982201;28;20448;-61
2022/11/29 11:39:46;;;;;;;3.73;3.53;;;19.30;42.70;;;;;;4971895;28;20469;-62
2022/11/29 11:45:22;;;;;;;4.37;3.97;;;19.30;42.60;;;;;;4988057;28;20952;-63
2022/11/29 11:47:51;;;;;;;4.20;3.80;;;19.30;42.70;;;;;;4973679;28;20959;-61
2022/11/29 11:50:26;;;;;;;3.97;3.67;;;19.30;42.70;;;;;;4982848;28;20843;-63
2022/11/29 11:52:55;;;;;;;4.30;4.00;;;19.30;42.60;;;;;;4987384;28;20449;-61
2022/11/29 11:55:20;;;;;;;7.00;3.83;;;19.30;42.70;;;;;;4975257;28;20511;-61
2022/11/29 11:58:04;;;;;;;4.70;4.30;;;19.30;42.70;;;;;;4966293;28;20937;-62
2022/11/29 12:00:41;;;;;;;4.43;4.20;;;19.30;42.60;;;;;;4971408;28;20620;-63
2022/11/29 12:03:23;;;;;;;4.90;4.50;;;19.30;42.70;;;;;;4971211;28;20482;-62
2022/11/29 12:05:50;;;;;;;3.97;3.70;;;19.30;42.70;;;;;;4986101;28;20917;-62
2022/11/29 12:08:16;;;;;;;4.23;3.97;;;19.30;42.70;;;;;;4988323;28;20546;-62
2022/11/29 12:10:43;;;;;;;3.83;3.63;;;19.30;42.70;;;;;;4986324;28;20465;-62
2022/11/29 12:13:19;;;;;;;5.20;4.80;;;19.30;42.70;;;;;;4986140;28;20446;-62
2022/11/29 12:15:48;;;;;;;4.30;4.00;;;19.30;42.70;;;;;;4991860;28;20990;-62
2022/11/29 12:18:26;;;;;;;3.80;3.50;;;19.30;43.50;;;;;;4992365;28;20966;-62
2022/11/29 12:21:15;;;;;;;4.77;4.37;;;19.30;42.70;;;;;;4982836;28;20539;-62
2022/11/29 12:24:02;;;;;;;4.20;3.90;;;19.30;42.70;;;;;;4987191;28;20778;-63
2022/11/29 12:26:48;;;;;;;4.30;4.00;;;19.30;42.70;;;;;;4987809;28;20959;-62
2022/11/29 12:29:21;;;;;;;4.40;4.00;;;19.30;42.70;;;;;;4984450;28;20428;-62
2022/11/29 12:31:55;;;;;;;4.27;3.97;;;19.30;42.70;;;;;;4979929;28;21301;-62
2022/11/29 12:34:36;;;;;;;4.10;3.80;;;19.30;42.70;;;;;;4985810;28;20456;-62
2022/11/29 12:37:21;;;;;;;4.83;4.43;;;19.30;42.70;;;;;;4971521;28;20462;-62
2022/11/29 12:39:57;;;;;;;4.33;3.93;;;19.30;42.70;;;;;;4984001;28;20735;-62
2022/11/29 12:42:54;;;;;;;4.10;3.80;;;19.30;42.70;;;;;;4991811;28;20456;-62
2022/11/29 12:45:32;;;;;;;4.83;4.40;;;19.30;42.70;;;;;;4990696;28;20457;-62
2022/11/29 12:48:25;;;;;;;3.50;3.30;;;19.30;42.70;;;;;;4989372;28;20427;-62
2022/11/29 12:50:57;;;;;;;3.80;3.60;;;19.30;42.80;;;;;;4983413;28;20771;-61
2022/11/29 12:54:00;;;;;;;5.30;4.60;;;19.30;42.70;;;;;;4971840;28;20447;-61
2022/11/29 12:56:45;;;;;;;3.97;3.77;;;19.30;42.70;;;;;;4991733;28;20470;-62
2022/11/29 12:59:32;;;;;;;4.00;3.70;;;19.30;42.70;;;;;;4988182;28;20468;-62
2022/11/29 13:02:24;;;;;;;3.70;3.40;;;19.30;42.80;;;;;;4987853;28;20503;-62
2022/11/29 13:05:19;;;;;;;4.47;4.17;;;19.30;42.70;;;;;;4989303;28;20962;-61
2022/11/29 13:08:15;;;;;;;4.20;3.80;;;19.30;42.80;;;;;;4987206;28;20919;-62
2022/11/29 13:10:40;;;;;;;4.50;4.20;;;19.30;42.70;;;;;;4971284;28;20542;-62
2022/11/29 13:13:14;;;;;;;4.70;4.30;;;19.30;42.80;;;;;;4977540;28;20423;-61
2022/11/29 13:16:06;;;;;;;4.20;3.90;;;19.30;42.70;;;;;;4973560;28;20224;-62
2022/11/29 13:18:45;;;;;;;4.83;4.43;;;19.30;42.70;;;;;;4963144;28;20551;-61
2022/11/29 13:21:15;;;;;;;4.20;3.90;;;19.30;42.70;;;;;;4985763;28;20662;-61
2022/11/29 13:23:55;;;;;;;4.03;3.77;;;19.30;43.60;;;;;;4978294;28;20469;-62
2022/11/29 13:26:22;;;;;;;5.50;5.00;;;19.30;42.70;;;;;;4976158;28;20462;-61
2022/11/29 13:28:49;;;;;;;4.33;4.00;;;19.30;43.50;;;;;;4970522;28;20487;-62
2022/11/29 13:31:18;;;;;;;4.30;4.10;;;19.30;42.80;;;;;;4972805;28;21004;-62
2022/11/29 13:33:53;;;;;;;4.67;4.37;;;19.30;42.80;;;;;;4978129;28;20488;-62
2022/11/29 13:36:55;;;;;;;3.73;3.53;;;19.30;42.70;;;;;;4974574;28;20933;-62
2022/11/29 13:39:45;;;;;;;4.70;4.43;;;19.30;42.70;;;;;;4990677;28;21004;-61
2022/11/29 13:42:19;;;;;;;4.40;4.03;;;19.30;43.50;;;;;;4986808;28;20463;-62
2022/11/29 13:44:54;;;;;;;5.30;4.80;;;19.30;42.80;;;;;;4969341;28;20471;-61
2022/11/29 13:47:21;;;;;;;3.83;3.63;;;19.30;42.70;;;;;;4985159;28;20439;-61
2022/11/29 13:49:49;;;;;;;4.50;4.20;;;19.30;42.70;;;;;;4995824;28;20457;-62
2022/11/29 13:52:42;;;;;;;4.47;4.13;;;19.30;42.70;;;;;;4985706;28;20489;-62